sensor_id;sensor_type;location;lat;lon;timestamp;temperature;humidity
50955;DHT22;36966;48.064;-0.792;2023-05-16T00:00:11;20.40;44.10
50955;DHT22;36966;48.064;-0.792;2023-05-16T00:02:31;20.40;44.10
50955;DHT22;36966;48.064;-0.792;2023-05-16T00:04:50;20.40;44.10
50955;DHT22;36966;48.064;-0.792;2023-05-16T00:07:13;20.30;44.10
50955;DHT22;36966;48.064;-0.792;2023-05-16T00:09:36;20.30;44.20
50955;DHT22;36966;48.064;-0.792;2023-05-16T00:11:55;20.30;44.20
50955;DHT22;36966;48.064;-0.792;2023-05-16T00:14:15;20.30;44.20
50955;DHT22;36966;48.064;-0.792;2023-05-16T00:16:35;20.30;44.20
50955;DHT22;36966;48.064;-0.792;2023-05-16T00:18:55;20.30;44.30
50955;DHT22;36966;48.064;-0.792;2023-05-16T00:21:15;20.30;44.30
50955;DHT22;36966;48.064;-0.792;2023-05-16T00:23:35;20.20;44.30
50955;DHT22;36966;48.064;-0.792;2023-05-16T00:25:57;20.20;44.40
50955;DHT22;36966;48.064;-0.792;2023-05-16T00:28:16;20.20;44.40
50955;DHT22;36966;48.064;-0.792;2023-05-16T00:30:36;20.20;44.50
50955;DHT22;36966;48.064;-0.792;2023-05-16T00:32:55;20.20;44.40
50955;DHT22;36966;48.064;-0.792;2023-05-16T00:35:17;20.20;44.40
50955;DHT22;36966;48.064;-0.792;2023-05-16T00:37:37;20.20;44.50
50955;DHT22;36966;48.064;-0.792;2023-05-16T00:39:56;20.20;44.50
50955;DHT22;36966;48.064;-0.792;2023-05-16T00:42:17;20.20;44.50
50955;DHT22;36966;48.064;-0.792;2023-05-16T00:44:37;20.20;44.60
50955;DHT22;36966;48.064;-0.792;2023-05-16T00:46:57;20.20;44.50
50955;DHT22;36966;48.064;-0.792;2023-05-16T00:49:18;20.10;44.60
50955;DHT22;36966;48.064;-0.792;2023-05-16T00:51:47;20.20;44.60
50955;DHT22;36966;48.064;-0.792;2023-05-16T00:54:07;20.20;44.60
50955;DHT22;36966;48.064;-0.792;2023-05-16T00:56:27;20.10;44.60
50955;DHT22;36966;48.064;-0.792;2023-05-16T00:58:47;20.10;44.60
50955;DHT22;36966;48.064;-0.792;2023-05-16T01:01:10;20.10;44.70
50955;DHT22;36966;48.064;-0.792;2023-05-16T01:03:29;20.10;44.80
50955;DHT22;36966;48.064;-0.792;2023-05-16T01:05:49;20.10;44.80
50955;DHT22;36966;48.064;-0.792;2023-05-16T01:08:09;20.10;44.80
50955;DHT22;36966;48.064;-0.792;2023-05-16T01:10:31;20.00;44.90
50955;DHT22;36966;48.064;-0.792;2023-05-16T01:13:00;20.00;44.90
50955;DHT22;36966;48.064;-0.792;2023-05-16T01:15:27;20.10;44.90
50955;DHT22;36966;48.064;-0.792;2023-05-16T01:25:12;20.00;45.00
50955;DHT22;36966;48.064;-0.792;2023-05-16T01:27:35;20.00;45.00
50955;DHT22;36966;48.064;-0.792;2023-05-16T01:29:56;20.00;45.10
50955;DHT22;36966;48.064;-0.792;2023-05-16T01:32:16;20.00;45.10
50955;DHT22;36966;48.064;-0.792;2023-05-16T01:34:35;19.90;45.20
50955;DHT22;36966;48.064;-0.792;2023-05-16T01:36:58;19.90;45.10
50955;DHT22;36966;48.064;-0.792;2023-05-16T01:40:02;20.00;45.20
50955;DHT22;36966;48.064;-0.792;2023-05-16T01:42:06;19.90;45.10
50955;DHT22;36966;48.064;-0.792;2023-05-16T01:44:29;19.90;45.30
50955;DHT22;36966;48.064;-0.792;2023-05-16T01:46:50;19.90;45.30
50955;DHT22;36966;48.064;-0.792;2023-05-16T01:49:30;19.90;45.30
50955;DHT22;36966;48.064;-0.792;2023-05-16T01:51:51;19.90;45.40
50955;DHT22;36966;48.064;-0.792;2023-05-16T01:54:12;19.80;45.40
50955;DHT22;36966;48.064;-0.792;2023-05-16T01:56:34;19.80;45.40
50955;DHT22;36966;48.064;-0.792;2023-05-16T01:58:54;19.80;45.50
50955;DHT22;36966;48.064;-0.792;2023-05-16T02:01:14;19.80;45.50
50955;DHT22;36966;48.064;-0.792;2023-05-16T02:03:34;19.80;45.50
50955;DHT22;36966;48.064;-0.792;2023-05-16T02:05:53;19.80;45.40
50955;DHT22;36966;48.064;-0.792;2023-05-16T02:08:12;19.80;45.50
50955;DHT22;36966;48.064;-0.792;2023-05-16T02:10:32;19.80;45.50
50955;DHT22;36966;48.064;-0.792;2023-05-16T02:13:01;19.70;45.50
50955;DHT22;36966;48.064;-0.792;2023-05-16T02:15:21;19.70;45.60
50955;DHT22;36966;48.064;-0.792;2023-05-16T02:17:40;19.70;45.70
50955;DHT22;36966;48.064;-0.792;2023-05-16T02:19:59;19.70;45.60
50955;DHT22;36966;48.064;-0.792;2023-05-16T02:22:24;19.70;45.70
50955;DHT22;36966;48.064;-0.792;2023-05-16T02:24:43;19.70;45.70
50955;DHT22;36966;48.064;-0.792;2023-05-16T02:27:03;19.70;45.70
50955;DHT22;36966;48.064;-0.792;2023-05-16T02:29:23;19.70;45.70
50955;DHT22;36966;48.064;-0.792;2023-05-16T02:31:43;19.70;45.70
50955;DHT22;36966;48.064;-0.792;2023-05-16T02:34:02;19.70;45.80
50955;DHT22;36966;48.064;-0.792;2023-05-16T02:36:22;19.70;45.70
50955;DHT22;36966;48.064;-0.792;2023-05-16T02:38:42;19.70;45.80
50955;DHT22;36966;48.064;-0.792;2023-05-16T02:41:02;19.70;45.80
50955;DHT22;36966;48.064;-0.792;2023-05-16T02:43:21;19.70;45.90
50955;DHT22;36966;48.064;-0.792;2023-05-16T02:45:41;19.70;45.80
50955;DHT22;36966;48.064;-0.792;2023-05-16T02:48:00;19.70;45.90
50955;DHT22;36966;48.064;-0.792;2023-05-16T02:50:20;19.70;45.90
50955;DHT22;36966;48.064;-0.792;2023-05-16T02:52:39;19.70;45.80
50955;DHT22;36966;48.064;-0.792;2023-05-16T02:54:58;19.60;45.80
50955;DHT22;36966;48.064;-0.792;2023-05-16T02:57:18;19.70;45.80
50955;DHT22;36966;48.064;-0.792;2023-05-16T02:59:37;19.60;45.90
50955;DHT22;36966;48.064;-0.792;2023-05-16T03:01:56;19.60;45.90
50955;DHT22;36966;48.064;-0.792;2023-05-16T03:04:16;19.70;45.80
50955;DHT22;36966;48.064;-0.792;2023-05-16T03:06:43;19.60;45.90
50955;DHT22;36966;48.064;-0.792;2023-05-16T03:09:02;19.60;45.90
50955;DHT22;36966;48.064;-0.792;2023-05-16T03:11:22;19.60;45.90
50955;DHT22;36966;48.064;-0.792;2023-05-16T03:13:42;19.50;45.90
50955;DHT22;36966;48.064;-0.792;2023-05-16T03:16:02;19.50;45.90
50955;DHT22;36966;48.064;-0.792;2023-05-16T03:18:23;19.60;46.00
50955;DHT22;36966;48.064;-0.792;2023-05-16T03:20:43;19.60;46.00
50955;DHT22;36966;48.064;-0.792;2023-05-16T03:23:02;19.60;45.90
50955;DHT22;36966;48.064;-0.792;2023-05-16T03:25:25;19.60;46.00
50955;DHT22;36966;48.064;-0.792;2023-05-16T03:27:44;19.50;46.00
50955;DHT22;36966;48.064;-0.792;2023-05-16T03:30:04;19.50;46.00
50955;DHT22;36966;48.064;-0.792;2023-05-16T03:32:24;19.50;46.00
50955;DHT22;36966;48.064;-0.792;2023-05-16T03:34:44;19.50;45.90
50955;DHT22;36966;48.064;-0.792;2023-05-16T03:37:05;19.50;46.00
50955;DHT22;36966;48.064;-0.792;2023-05-16T03:39:24;19.50;46.00
50955;DHT22;36966;48.064;-0.792;2023-05-16T03:41:44;19.50;46.00
50955;DHT22;36966;48.064;-0.792;2023-05-16T03:44:04;19.50;46.00
50955;DHT22;36966;48.064;-0.792;2023-05-16T03:49:23;19.40;45.60
50955;DHT22;36966;48.064;-0.792;2023-05-16T03:51:43;19.20;46.20
50955;DHT22;36966;48.064;-0.792;2023-05-16T03:54:02;19.20;46.10
50955;DHT22;36966;48.064;-0.792;2023-05-16T03:56:22;19.30;46.00
50955;DHT22;36966;48.064;-0.792;2023-05-16T03:58:41;19.30;45.90
50955;DHT22;36966;48.064;-0.792;2023-05-16T04:01:00;19.30;45.90
50955;DHT22;36966;48.064;-0.792;2023-05-16T04:03:20;19.30;45.90
50955;DHT22;36966;48.064;-0.792;2023-05-16T04:05:45;19.30;45.90
50955;DHT22;36966;48.064;-0.792;2023-05-16T04:08:05;19.40;45.90
50955;DHT22;36966;48.064;-0.792;2023-05-16T04:10:24;19.40;45.90
50955;DHT22;36966;48.064;-0.792;2023-05-16T04:12:43;19.30;45.90
50955;DHT22;36966;48.064;-0.792;2023-05-16T04:15:04;19.30;45.90
50955;DHT22;36966;48.064;-0.792;2023-05-16T04:17:23;19.30;45.90
50955;DHT22;36966;48.064;-0.792;2023-05-16T04:19:42;19.30;45.90
50955;DHT22;36966;48.064;-0.792;2023-05-16T04:22:02;19.30;46.00
50955;DHT22;36966;48.064;-0.792;2023-05-16T04:24:24;19.30;45.90
50955;DHT22;36966;48.064;-0.792;2023-05-16T04:26:47;19.30;46.00
50955;DHT22;36966;48.064;-0.792;2023-05-16T04:29:06;19.30;46.00
50955;DHT22;36966;48.064;-0.792;2023-05-16T04:31:26;19.30;46.00
50955;DHT22;36966;48.064;-0.792;2023-05-16T04:33:45;19.30;46.10
50955;DHT22;36966;48.064;-0.792;2023-05-16T04:36:05;19.30;46.10
50955;DHT22;36966;48.064;-0.792;2023-05-16T04:38:25;19.30;46.00
50955;DHT22;36966;48.064;-0.792;2023-05-16T04:40:44;19.30;46.00
50955;DHT22;36966;48.064;-0.792;2023-05-16T04:43:04;19.20;46.00
50955;DHT22;36966;48.064;-0.792;2023-05-16T04:45:23;19.30;46.00
50955;DHT22;36966;48.064;-0.792;2023-05-16T04:47:42;19.20;45.90
50955;DHT22;36966;48.064;-0.792;2023-05-16T04:50:02;19.20;45.90
50955;DHT22;36966;48.064;-0.792;2023-05-16T04:52:21;19.20;45.90
50955;DHT22;36966;48.064;-0.792;2023-05-16T04:54:41;19.20;45.90
50955;DHT22;36966;48.064;-0.792;2023-05-16T04:57:00;19.20;46.40
50955;DHT22;36966;48.064;-0.792;2023-05-16T04:59:23;19.20;46.10
50955;DHT22;36966;48.064;-0.792;2023-05-16T05:01:42;19.20;46.00
50955;DHT22;36966;48.064;-0.792;2023-05-16T05:04:01;19.30;46.00
50955;DHT22;36966;48.064;-0.792;2023-05-16T05:06:21;19.30;45.90
50955;DHT22;36966;48.064;-0.792;2023-05-16T05:08:40;19.30;45.90
50955;DHT22;36966;48.064;-0.792;2023-05-16T05:11:00;19.20;45.90
50955;DHT22;36966;48.064;-0.792;2023-05-16T05:13:20;19.20;45.90
50955;DHT22;36966;48.064;-0.792;2023-05-16T05:15:39;19.30;45.90
50955;DHT22;36966;48.064;-0.792;2023-05-16T05:17:58;19.30;45.80
50955;DHT22;36966;48.064;-0.792;2023-05-16T05:20:17;19.30;45.90
50955;DHT22;36966;48.064;-0.792;2023-05-16T05:22:36;19.30;45.90
50955;DHT22;36966;48.064;-0.792;2023-05-16T05:24:56;19.20;45.80
50955;DHT22;36966;48.064;-0.792;2023-05-16T05:27:15;19.30;45.80
50955;DHT22;36966;48.064;-0.792;2023-05-16T05:29:38;19.30;45.80
50955;DHT22;36966;48.064;-0.792;2023-05-16T05:31:58;19.30;45.90
50955;DHT22;36966;48.064;-0.792;2023-05-16T05:34:17;19.30;45.90
50955;DHT22;36966;48.064;-0.792;2023-05-16T05:36:37;19.30;45.90
50955;DHT22;36966;48.064;-0.792;2023-05-16T05:38:56;19.30;45.80
50955;DHT22;36966;48.064;-0.792;2023-05-16T05:41:16;19.30;45.80
50955;DHT22;36966;48.064;-0.792;2023-05-16T05:43:35;19.30;45.80
50955;DHT22;36966;48.064;-0.792;2023-05-16T05:45:54;19.30;45.90
50955;DHT22;36966;48.064;-0.792;2023-05-16T05:48:14;19.20;45.80
50955;DHT22;36966;48.064;-0.792;2023-05-16T05:50:34;19.30;45.80
50955;DHT22;36966;48.064;-0.792;2023-05-16T05:52:53;19.30;45.80
50955;DHT22;36966;48.064;-0.792;2023-05-16T05:55:12;19.30;45.80
50955;DHT22;36966;48.064;-0.792;2023-05-16T05:57:32;19.30;45.80
50955;DHT22;36966;48.064;-0.792;2023-05-16T05:59:51;19.30;45.70
50955;DHT22;36966;48.064;-0.792;2023-05-16T06:02:10;19.30;45.80
50955;DHT22;36966;48.064;-0.792;2023-05-16T06:04:30;19.20;45.80
50955;DHT22;36966;48.064;-0.792;2023-05-16T06:06:52;19.30;45.80
50955;DHT22;36966;48.064;-0.792;2023-05-16T06:09:14;19.30;45.80
50955;DHT22;36966;48.064;-0.792;2023-05-16T06:11:33;19.30;45.90
50955;DHT22;36966;48.064;-0.792;2023-05-16T06:13:53;19.20;45.80
50955;DHT22;36966;48.064;-0.792;2023-05-16T06:16:13;19.30;45.80
50955;DHT22;36966;48.064;-0.792;2023-05-16T06:18:32;19.30;45.90
50955;DHT22;36966;48.064;-0.792;2023-05-16T06:20:52;19.30;45.90
50955;DHT22;36966;48.064;-0.792;2023-05-16T06:23:12;19.30;45.90
50955;DHT22;36966;48.064;-0.792;2023-05-16T06:25:31;19.30;45.90
50955;DHT22;36966;48.064;-0.792;2023-05-16T06:27:50;19.30;45.90
50955;DHT22;36966;48.064;-0.792;2023-05-16T06:30:10;19.30;46.00
50955;DHT22;36966;48.064;-0.792;2023-05-16T06:32:29;19.30;46.00
50955;DHT22;36966;48.064;-0.792;2023-05-16T06:34:49;19.30;46.10
50955;DHT22;36966;48.064;-0.792;2023-05-16T06:37:08;19.40;46.10
50955;DHT22;36966;48.064;-0.792;2023-05-16T06:39:28;19.40;46.10
50955;DHT22;36966;48.064;-0.792;2023-05-16T06:41:47;19.40;46.20
50955;DHT22;36966;48.064;-0.792;2023-05-16T06:46:57;19.50;46.20
50955;DHT22;36966;48.064;-0.792;2023-05-16T06:49:17;19.50;46.20
50955;DHT22;36966;48.064;-0.792;2023-05-16T06:54:06;19.50;46.20
50955;DHT22;36966;48.064;-0.792;2023-05-16T06:56:25;19.60;46.20
50955;DHT22;36966;48.064;-0.792;2023-05-16T06:58:46;19.60;46.20
50955;DHT22;36966;48.064;-0.792;2023-05-16T07:01:07;19.60;46.20
50955;DHT22;36966;48.064;-0.792;2023-05-16T07:03:27;19.70;46.10
50955;DHT22;36966;48.064;-0.792;2023-05-16T07:05:46;19.70;46.10
50955;DHT22;36966;48.064;-0.792;2023-05-16T07:08:07;19.70;46.10
50955;DHT22;36966;48.064;-0.792;2023-05-16T07:10:27;19.70;46.00
50955;DHT22;36966;48.064;-0.792;2023-05-16T07:12:46;19.70;46.00
50955;DHT22;36966;48.064;-0.792;2023-05-16T07:15:06;19.80;46.00
50955;DHT22;36966;48.064;-0.792;2023-05-16T07:17:26;19.80;45.90
50955;DHT22;36966;48.064;-0.792;2023-05-16T07:19:46;19.80;45.90
50955;DHT22;36966;48.064;-0.792;2023-05-16T07:22:05;19.80;45.90
50955;DHT22;36966;48.064;-0.792;2023-05-16T07:24:24;19.90;45.90
50955;DHT22;36966;48.064;-0.792;2023-05-16T07:26:44;19.90;45.90
50955;DHT22;36966;48.064;-0.792;2023-05-16T07:29:03;20.00;45.90
50955;DHT22;36966;48.064;-0.792;2023-05-16T07:31:38;20.00;45.90
50955;DHT22;36966;48.064;-0.792;2023-05-16T07:36:39;20.10;45.90
50955;DHT22;36966;48.064;-0.792;2023-05-16T07:38:59;20.10;45.70
50955;DHT22;36966;48.064;-0.792;2023-05-16T07:41:18;20.10;45.60
50955;DHT22;36966;48.064;-0.792;2023-05-16T07:43:38;20.10;45.60
50955;DHT22;36966;48.064;-0.792;2023-05-16T07:45:57;20.20;45.60
50955;DHT22;36966;48.064;-0.792;2023-05-16T07:48:16;20.20;45.50
50955;DHT22;36966;48.064;-0.792;2023-05-16T07:50:36;20.20;45.60
50955;DHT22;36966;48.064;-0.792;2023-05-16T07:52:55;20.20;45.60
50955;DHT22;36966;48.064;-0.792;2023-05-16T07:55:14;20.30;45.40
50955;DHT22;36966;48.064;-0.792;2023-05-16T07:57:34;20.20;45.50
50955;DHT22;36966;48.064;-0.792;2023-05-16T07:59:53;20.30;45.50
50955;DHT22;36966;48.064;-0.792;2023-05-16T08:02:13;20.30;45.40
50955;DHT22;36966;48.064;-0.792;2023-05-16T08:04:32;20.30;45.40
50955;DHT22;36966;48.064;-0.792;2023-05-16T08:06:51;20.30;45.30
50955;DHT22;36966;48.064;-0.792;2023-05-16T08:09:11;20.40;45.20
50955;DHT22;36966;48.064;-0.792;2023-05-16T08:11:30;20.40;44.90
50955;DHT22;36966;48.064;-0.792;2023-05-16T08:13:50;20.50;44.80
50955;DHT22;36966;48.064;-0.792;2023-05-16T08:16:09;20.50;44.80
50955;DHT22;36966;48.064;-0.792;2023-05-16T08:18:29;20.50;44.40
50955;DHT22;36966;48.064;-0.792;2023-05-16T08:20:48;20.50;44.40
50955;DHT22;36966;48.064;-0.792;2023-05-16T08:23:08;20.60;44.20
50955;DHT22;36966;48.064;-0.792;2023-05-16T08:25:27;20.60;44.20
50955;DHT22;36966;48.064;-0.792;2023-05-16T08:27:48;20.60;44.00
50955;DHT22;36966;48.064;-0.792;2023-05-16T08:30:07;20.70;43.80
50955;DHT22;36966;48.064;-0.792;2023-05-16T08:32:37;20.70;43.70
50955;DHT22;36966;48.064;-0.792;2023-05-16T08:34:58;20.70;43.30
50955;DHT22;36966;48.064;-0.792;2023-05-16T08:37:18;20.80;43.10
50955;DHT22;36966;48.064;-0.792;2023-05-16T08:39:37;20.80;43.10
50955;DHT22;36966;48.064;-0.792;2023-05-16T08:41:57;20.80;43.10
50955;DHT22;36966;48.064;-0.792;2023-05-16T08:44:20;20.80;42.80
50955;DHT22;36966;48.064;-0.792;2023-05-16T08:46:39;20.90;42.60
50955;DHT22;36966;48.064;-0.792;2023-05-16T08:48:59;21.00;42.40
50955;DHT22;36966;48.064;-0.792;2023-05-16T08:51:19;21.00;42.40
50955;DHT22;36966;48.064;-0.792;2023-05-16T08:53:41;21.00;42.20
50955;DHT22;36966;48.064;-0.792;2023-05-16T08:58:33;21.00;42.30
50955;DHT22;36966;48.064;-0.792;2023-05-16T09:00:56;21.10;42.40
50955;DHT22;36966;48.064;-0.792;2023-05-16T09:03:15;21.10;42.10
50955;DHT22;36966;48.064;-0.792;2023-05-16T09:05:38;21.10;42.40
50955;DHT22;36966;48.064;-0.792;2023-05-16T09:07:57;21.20;42.40
50955;DHT22;36966;48.064;-0.792;2023-05-16T09:10:16;21.20;42.10
50955;DHT22;36966;48.064;-0.792;2023-05-16T09:12:36;21.20;42.30
50955;DHT22;36966;48.064;-0.792;2023-05-16T09:14:55;21.20;42.40
50955;DHT22;36966;48.064;-0.792;2023-05-16T09:17:14;21.20;42.40
50955;DHT22;36966;48.064;-0.792;2023-05-16T09:21:56;21.20;42.50
50955;DHT22;36966;48.064;-0.792;2023-05-16T09:24:15;21.20;42.20
50955;DHT22;36966;48.064;-0.792;2023-05-16T09:26:36;21.20;42.30
50955;DHT22;36966;48.064;-0.792;2023-05-16T09:28:55;21.30;42.10
50955;DHT22;36966;48.064;-0.792;2023-05-16T09:31:18;21.30;42.30
50955;DHT22;36966;48.064;-0.792;2023-05-16T09:33:40;21.30;42.30
50955;DHT22;36966;48.064;-0.792;2023-05-16T09:36:00;21.30;42.30
50955;DHT22;36966;48.064;-0.792;2023-05-16T09:38:19;21.30;42.10
50955;DHT22;36966;48.064;-0.792;2023-05-16T09:40:39;21.30;41.90
50955;DHT22;36966;48.064;-0.792;2023-05-16T09:43:03;21.40;42.00
50955;DHT22;36966;48.064;-0.792;2023-05-16T09:45:31;21.40;41.90
50955;DHT22;36966;48.064;-0.792;2023-05-16T09:47:51;21.40;42.10
50955;DHT22;36966;48.064;-0.792;2023-05-16T09:50:12;21.40;42.10
50955;DHT22;36966;48.064;-0.792;2023-05-16T09:52:33;21.40;42.10
50955;DHT22;36966;48.064;-0.792;2023-05-16T09:57:23;21.50;42.00
50955;DHT22;36966;48.064;-0.792;2023-05-16T09:59:44;21.50;41.70
50955;DHT22;36966;48.064;-0.792;2023-05-16T10:02:04;21.40;41.50
50955;DHT22;36966;48.064;-0.792;2023-05-16T10:04:24;21.30;41.60
50955;DHT22;36966;48.064;-0.792;2023-05-16T10:06:43;21.30;41.70
50955;DHT22;36966;48.064;-0.792;2023-05-16T10:09:03;21.30;41.50
50955;DHT22;36966;48.064;-0.792;2023-05-16T10:11:23;21.30;41.70
50955;DHT22;36966;48.064;-0.792;2023-05-16T10:13:42;21.30;41.40
50955;DHT22;36966;48.064;-0.792;2023-05-16T10:16:11;21.30;41.60
50955;DHT22;36966;48.064;-0.792;2023-05-16T10:18:32;21.30;40.80
50955;DHT22;36966;48.064;-0.792;2023-05-16T10:20:52;21.30;40.90
50955;DHT22;36966;48.064;-0.792;2023-05-16T10:23:13;21.30;40.70
50955;DHT22;36966;48.064;-0.792;2023-05-16T10:25:39;21.30;41.10
50955;DHT22;36966;48.064;-0.792;2023-05-16T10:27:59;21.30;41.20
50955;DHT22;36966;48.064;-0.792;2023-05-16T10:30:19;21.30;41.30
50955;DHT22;36966;48.064;-0.792;2023-05-16T10:32:39;21.30;41.40
50955;DHT22;36966;48.064;-0.792;2023-05-16T10:34:58;21.30;41.80
50955;DHT22;36966;48.064;-0.792;2023-05-16T10:37:19;21.30;41.40
50955;DHT22;36966;48.064;-0.792;2023-05-16T10:39:38;21.30;41.10
50955;DHT22;36966;48.064;-0.792;2023-05-16T10:41:58;21.40;41.50
50955;DHT22;36966;48.064;-0.792;2023-05-16T10:44:18;21.40;41.50
50955;DHT22;36966;48.064;-0.792;2023-05-16T10:46:37;21.50;41.70
50955;DHT22;36966;48.064;-0.792;2023-05-16T10:48:56;21.50;41.20
50955;DHT22;36966;48.064;-0.792;2023-05-16T10:53:41;21.50;41.60
50955;DHT22;36966;48.064;-0.792;2023-05-16T11:03:36;21.60;41.30
50955;DHT22;36966;48.064;-0.792;2023-05-16T11:05:58;21.60;41.00
50955;DHT22;36966;48.064;-0.792;2023-05-16T11:08:18;21.60;41.00
50955;DHT22;36966;48.064;-0.792;2023-05-16T11:10:37;21.60;41.30
50955;DHT22;36966;48.064;-0.792;2023-05-16T11:13:06;21.60;41.70
50955;DHT22;36966;48.064;-0.792;2023-05-16T11:15:26;21.70;41.30
50955;DHT22;36966;48.064;-0.792;2023-05-16T11:17:46;21.60;41.40
50955;DHT22;36966;48.064;-0.792;2023-05-16T11:20:06;21.70;41.20
50955;DHT22;36966;48.064;-0.792;2023-05-16T11:24:53;21.70;41.30
50955;DHT22;36966;48.064;-0.792;2023-05-16T11:27:25;21.70;41.40
50955;DHT22;36966;48.064;-0.792;2023-05-16T11:29:45;21.70;41.40
50955;DHT22;36966;48.064;-0.792;2023-05-16T11:32:04;21.70;41.40
50955;DHT22;36966;48.064;-0.792;2023-05-16T11:34:23;21.70;41.60
50955;DHT22;36966;48.064;-0.792;2023-05-16T11:36:43;21.70;41.70
50955;DHT22;36966;48.064;-0.792;2023-05-16T11:39:06;21.70;41.90
50955;DHT22;36966;48.064;-0.792;2023-05-16T11:41:27;21.80;41.70
50955;DHT22;36966;48.064;-0.792;2023-05-16T11:43:48;21.70;40.90
50955;DHT22;36966;48.064;-0.792;2023-05-16T11:46:11;21.70;41.40
50955;DHT22;36966;48.064;-0.792;2023-05-16T11:48:31;21.70;41.20
50955;DHT22;36966;48.064;-0.792;2023-05-16T11:50:50;21.70;41.80
50955;DHT22;36966;48.064;-0.792;2023-05-16T11:53:12;21.70;41.80
50955;DHT22;36966;48.064;-0.792;2023-05-16T11:55:53;21.80;41.80
50955;DHT22;36966;48.064;-0.792;2023-05-16T11:58:13;21.70;41.10
50955;DHT22;36966;48.064;-0.792;2023-05-16T12:00:32;21.70;41.20
50955;DHT22;36966;48.064;-0.792;2023-05-16T12:02:52;21.80;41.50
50955;DHT22;36966;48.064;-0.792;2023-05-16T12:05:12;21.80;41.60
50955;DHT22;36966;48.064;-0.792;2023-05-16T12:07:34;21.80;41.50
50955;DHT22;36966;48.064;-0.792;2023-05-16T12:09:53;21.80;41.60
50955;DHT22;36966;48.064;-0.792;2023-05-16T12:12:13;21.80;41.60
50955;DHT22;36966;48.064;-0.792;2023-05-16T12:14:33;21.80;41.40
50955;DHT22;36966;48.064;-0.792;2023-05-16T12:16:52;21.80;41.50
50955;DHT22;36966;48.064;-0.792;2023-05-16T12:19:12;21.80;41.40
50955;DHT22;36966;48.064;-0.792;2023-05-16T12:21:32;21.70;41.50
50955;DHT22;36966;48.064;-0.792;2023-05-16T12:23:55;21.70;41.70
50955;DHT22;36966;48.064;-0.792;2023-05-16T12:26:22;21.70;41.30
50955;DHT22;36966;48.064;-0.792;2023-05-16T12:28:42;21.70;41.10
50955;DHT22;36966;48.064;-0.792;2023-05-16T12:31:02;21.70;41.50
50955;DHT22;36966;48.064;-0.792;2023-05-16T12:33:22;21.70;41.80
50955;DHT22;36966;48.064;-0.792;2023-05-16T12:35:43;21.70;41.60
50955;DHT22;36966;48.064;-0.792;2023-05-16T12:38:03;21.60;42.00
50955;DHT22;36966;48.064;-0.792;2023-05-16T12:40:26;21.50;41.80
50955;DHT22;36966;48.064;-0.792;2023-05-16T12:42:49;21.50;42.40
50955;DHT22;36966;48.064;-0.792;2023-05-16T12:45:15;21.50;42.40
50955;DHT22;36966;48.064;-0.792;2023-05-16T12:47:36;21.50;42.40
50955;DHT22;36966;48.064;-0.792;2023-05-16T12:49:56;21.50;42.40
50955;DHT22;36966;48.064;-0.792;2023-05-16T12:52:19;21.40;42.20
50955;DHT22;36966;48.064;-0.792;2023-05-16T12:54:54;21.40;42.20
50955;DHT22;36966;48.064;-0.792;2023-05-16T12:57:14;21.40;42.00
50955;DHT22;36966;48.064;-0.792;2023-05-16T12:59:33;21.40;42.30
50955;DHT22;36966;48.064;-0.792;2023-05-16T13:01:52;21.40;42.60
50955;DHT22;36966;48.064;-0.792;2023-05-16T13:04:12;21.40;42.70
50955;DHT22;36966;48.064;-0.792;2023-05-16T13:06:37;21.30;42.80
50955;DHT22;36966;48.064;-0.792;2023-05-16T13:09:05;21.30;42.80
50955;DHT22;36966;48.064;-0.792;2023-05-16T13:11:24;21.30;42.80
50955;DHT22;36966;48.064;-0.792;2023-05-16T13:13:43;21.40;42.60
50955;DHT22;36966;48.064;-0.792;2023-05-16T13:16:03;21.30;42.70
50955;DHT22;36966;48.064;-0.792;2023-05-16T13:18:22;21.30;42.70
50955;DHT22;36966;48.064;-0.792;2023-05-16T13:20:42;21.30;42.90
50955;DHT22;36966;48.064;-0.792;2023-05-16T13:23:02;21.30;43.00
50955;DHT22;36966;48.064;-0.792;2023-05-16T13:25:22;21.30;43.00
50955;DHT22;36966;48.064;-0.792;2023-05-16T13:27:41;21.30;43.20
50955;DHT22;36966;48.064;-0.792;2023-05-16T13:30:00;21.30;43.20
50955;DHT22;36966;48.064;-0.792;2023-05-16T13:32:20;21.30;43.20
50955;DHT22;36966;48.064;-0.792;2023-05-16T13:34:39;21.40;43.30
50955;DHT22;36966;48.064;-0.792;2023-05-16T13:36:58;21.40;43.40
50955;DHT22;36966;48.064;-0.792;2023-05-16T13:39:18;21.30;43.40
50955;DHT22;36966;48.064;-0.792;2023-05-16T13:41:37;21.40;43.40
50955;DHT22;36966;48.064;-0.792;2023-05-16T13:43:58;21.40;43.20
50955;DHT22;36966;48.064;-0.792;2023-05-16T13:46:17;21.40;43.20
50955;DHT22;36966;48.064;-0.792;2023-05-16T13:48:37;21.40;43.20
50955;DHT22;36966;48.064;-0.792;2023-05-16T13:50:56;21.40;42.60
50955;DHT22;36966;48.064;-0.792;2023-05-16T13:53:18;21.30;43.00
50955;DHT22;36966;48.064;-0.792;2023-05-16T13:55:37;21.30;43.10
50955;DHT22;36966;48.064;-0.792;2023-05-16T13:57:56;21.30;43.00
50955;DHT22;36966;48.064;-0.792;2023-05-16T14:00:15;21.30;43.10
50955;DHT22;36966;48.064;-0.792;2023-05-16T14:02:35;21.30;43.10
50955;DHT22;36966;48.064;-0.792;2023-05-16T14:04:54;21.30;42.90
50955;DHT22;36966;48.064;-0.792;2023-05-16T14:07:13;21.30;42.80
50955;DHT22;36966;48.064;-0.792;2023-05-16T14:09:33;21.30;42.40
50955;DHT22;36966;48.064;-0.792;2023-05-16T14:11:53;21.30;42.50
50955;DHT22;36966;48.064;-0.792;2023-05-16T14:14:28;21.30;42.50
50955;DHT22;36966;48.064;-0.792;2023-05-16T14:16:47;21.30;42.30
50955;DHT22;36966;48.064;-0.792;2023-05-16T14:19:06;21.30;42.30
50955;DHT22;36966;48.064;-0.792;2023-05-16T14:21:25;21.30;42.40
50955;DHT22;36966;48.064;-0.792;2023-05-16T14:23:45;21.30;42.30
50955;DHT22;36966;48.064;-0.792;2023-05-16T14:26:04;21.30;42.10
50955;DHT22;36966;48.064;-0.792;2023-05-16T14:28:23;21.30;41.90
50955;DHT22;36966;48.064;-0.792;2023-05-16T14:30:43;21.30;41.80
50955;DHT22;36966;48.064;-0.792;2023-05-16T14:33:09;21.30;41.70
50955;DHT22;36966;48.064;-0.792;2023-05-16T14:35:29;21.20;41.90
50955;DHT22;36966;48.064;-0.792;2023-05-16T14:37:48;21.30;42.00
50955;DHT22;36966;48.064;-0.792;2023-05-16T14:40:08;21.30;42.10
50955;DHT22;36966;48.064;-0.792;2023-05-16T14:42:30;21.20;42.10
50955;DHT22;36966;48.064;-0.792;2023-05-16T14:44:50;21.30;41.90
50955;DHT22;36966;48.064;-0.792;2023-05-16T14:47:10;21.20;41.60
50955;DHT22;36966;48.064;-0.792;2023-05-16T14:49:29;21.20;41.80
50955;DHT22;36966;48.064;-0.792;2023-05-16T14:51:50;21.20;41.30
50955;DHT22;36966;48.064;-0.792;2023-05-16T14:54:11;21.20;40.90
50955;DHT22;36966;48.064;-0.792;2023-05-16T14:56:31;21.20;41.00
50955;DHT22;36966;48.064;-0.792;2023-05-16T14:58:51;21.20;41.00
50955;DHT22;36966;48.064;-0.792;2023-05-16T15:01:10;21.20;41.40
50955;DHT22;36966;48.064;-0.792;2023-05-16T15:03:30;21.20;41.00
50955;DHT22;36966;48.064;-0.792;2023-05-16T15:05:51;21.10;41.10
50955;DHT22;36966;48.064;-0.792;2023-05-16T15:08:11;21.20;41.10
50955;DHT22;36966;48.064;-0.792;2023-05-16T15:10:30;21.10;41.30